Time;durP1;ratioP1;P1;durP2;ratioP2;P2;SDS_P1;SDS_P2;PMS_P1;PMS_P2;Temp;Humidity;BMP_temperature;BMP_pressure;BME280_temperature;BME280_humidity;BME280_pressure;Samples;Min_cycle;Max_cycle;Signal;HPM_P1;HPM_P2
2023/09/27 00:00:32;;;;;;;14.40;8.57;;;14.20;99.90;;;;;;5061980;28;20454;-72
2023/09/27 00:02:58;;;;;;;13.88;9.10;;;14.30;99.90;;;;;;5061714;28;20021;-72
2023/09/27 00:05:25;;;;;;;11.65;8.65;;;14.30;99.90;;;;;;5060214;28;20118;-73
2023/09/27 00:07:53;;;;;;;14.18;9.55;;;14.20;99.90;;;;;;5061018;28;20060;-73
2023/09/27 00:10:19;;;;;;;13.05;9.30;;;14.20;99.90;;;;;;5059714;28;20501;-73
2023/09/27 00:12:48;;;;;;;13.30;9.57;;;14.10;99.90;;;;;;5061574;28;20017;-73
2023/09/27 00:15:14;;;;;;;14.45;9.13;;;14.10;99.90;;;;;;5059510;28;20017;-73
2023/09/27 00:17:41;;;;;;;15.25;9.50;;;14.10;99.90;;;;;;5061318;28;20171;-75
2023/09/27 00:20:10;;;;;;;16.38;9.68;;;14.10;99.90;;;;;;5059852;28;20052;-74
2023/09/27 00:22:37;;;;;;;17.73;10.13;;;14.10;99.90;;;;;;5059838;28;20406;-73
2023/09/27 00:25:07;;;;;;;16.55;9.70;;;14.10;99.90;;;;;;5061232;28;20084;-72
2023/09/27 00:27:33;;;;;;;12.18;9.10;;;14.10;99.90;;;;;;5061397;28;20045;-72
2023/09/27 00:29:59;;;;;;;13.30;9.82;;;14.10;99.90;;;;;;5059640;28;20107;-73
2023/09/27 00:32:25;;;;;;;13.98;8.40;;;14.00;99.90;;;;;;5061309;28;20390;-74
2023/09/27 00:34:51;;;;;;;13.23;9.00;;;14.00;99.90;;;;;;5061407;28;20525;-73
2023/09/27 00:37:17;;;;;;;13.57;8.93;;;14.00;99.90;;;;;;5060642;28;20060;-73
2023/09/27 00:39:43;;;;;;;13.93;9.35;;;13.90;99.90;;;;;;5061541;28;20527;-71
2023/09/27 00:42:08;;;;;;;14.95;9.43;;;13.90;99.90;;;;;;5060944;28;20068;-75
2023/09/27 00:44:34;;;;;;;14.10;9.88;;;13.90;99.90;;;;;;5059681;28;20033;-72
2023/09/27 00:47:02;;;;;;;14.60;9.30;;;13.90;99.90;;;;;;5059928;28;20045;-73
2023/09/27 00:49:27;;;;;;;13.13;9.20;;;13.80;99.90;;;;;;5060461;28;20017;-72
2023/09/27 00:51:53;;;;;;;15.57;9.18;;;13.80;99.90;;;;;;5064547;28;20036;-74
2023/09/27 00:54:19;;;;;;;12.30;9.18;;;13.80;99.90;;;;;;5064962;28;20044;-74
2023/09/27 00:56:47;;;;;;;17.90;9.73;;;13.80;99.90;;;;;;5063699;28;20021;-75
2023/09/27 00:59:15;;;;;;;16.38;9.80;;;13.70;99.90;;;;;;5063189;28;20033;-74
2023/09/27 01:01:41;;;;;;;15.55;9.23;;;13.70;99.90;;;;;;5063464;28;20021;-74
2023/09/27 01:04:08;;;;;;;14.68;8.95;;;13.70;99.90;;;;;;5064364;28;20021;-74
2023/09/27 01:06:34;;;;;;;16.33;9.13;;;13.70;99.90;;;;;;5062993;28;20041;-74
2023/09/27 01:08:59;;;;;;;13.80;8.55;;;13.60;99.90;;;;;;5063905;28;20029;-74
2023/09/27 01:11:25;;;;;;;17.17;10.23;;;13.60;99.90;;;;;;5063315;28;20091;-73
2023/09/27 01:13:51;;;;;;;17.27;9.35;;;13.50;99.90;;;;;;5063195;28;20535;-73
2023/09/27 01:16:17;;;;;;;16.98;9.70;;;13.60;99.90;;;;;;5064616;28;20025;-73
2023/09/27 01:18:43;;;;;;;13.07;9.30;;;13.60;99.90;;;;;;5063960;28;20067;-74
2023/09/27 01:21:08;;;;;;;14.93;9.85;;;13.60;99.90;;;;;;5064249;28;20033;-75
2023/09/27 01:23:38;;;;;;;12.85;9.35;;;13.50;99.90;;;;;;5063525;28;20024;-72
2023/09/27 01:26:07;;;;;;;13.98;9.77;;;13.50;99.90;;;;;;5064022;28;20025;-73
2023/09/27 01:28:33;;;;;;;14.38;10.15;;;13.50;99.90;;;;;;5062769;28;20025;-73
2023/09/27 01:30:59;;;;;;;12.95;9.35;;;13.50;99.90;;;;;;5063169;28;20055;-72
2023/09/27 01:33:25;;;;;;;13.98;9.35;;;13.50;99.90;;;;;;5062770;28;20029;-72
2023/09/27 01:35:51;;;;;;;21.25;12.82;;;13.50;99.90;;;;;;5062429;28;20235;-73
2023/09/27 01:38:17;;;;;;;15.65;11.32;;;13.50;99.90;;;;;;5062718;28;20032;-73
2023/09/27 01:40:44;;;;;;;16.98;11.38;;;13.50;99.90;;;;;;5062651;28;20017;-74
2023/09/27 01:43:10;;;;;;;15.85;10.35;;;13.60;99.90;;;;;;5062401;28;20049;-73
2023/09/27 01:45:36;;;;;;;16.80;10.88;;;13.70;99.90;;;;;;5064246;28;20055;-74
2023/09/27 01:48:04;;;;;;;16.30;10.43;;;13.60;99.90;;;;;;5063846;28;20113;-73
2023/09/27 01:50:32;;;;;;;16.77;11.30;;;13.60;99.90;;;;;;5064132;28;20033;-74
2023/09/27 01:52:58;;;;;;;15.77;11.18;;;13.50;99.90;;;;;;5063714;28;20048;-72
2023/09/27 01:55:24;;;;;;;16.02;10.10;;;13.50;99.90;;;;;;5063537;28;20047;-73
2023/09/27 01:57:50;;;;;;;17.40;10.75;;;13.50;99.90;;;;;;5064042;28;20087;-73
2023/09/27 02:00:18;;;;;;;21.50;10.68;;;13.40;99.90;;;;;;5062426;28;20044;-74
2023/09/27 02:02:46;;;;;;;15.38;10.25;;;13.40;99.90;;;;;;5062479;28;20596;-73
2023/09/27 02:05:12;;;;;;;19.08;10.25;;;13.30;99.90;;;;;;5062521;28;20066;-72
2023/09/27 02:07:39;;;;;;;20.90;11.27;;;13.30;99.90;;;;;;5062354;28;20068;-74
2023/09/27 02:10:06;;;;;;;15.52;10.20;;;13.30;99.90;;;;;;5061999;28;20059;-75
2023/09/27 02:12:31;;;;;;;14.95;10.57;;;13.30;99.90;;;;;;5063667;28;20032;-74
2023/09/27 02:14:57;;;;;;;14.68;11.13;;;13.30;99.90;;;;;;5062172;28;20017;-75
2023/09/27 02:17:22;;;;;;;16.13;11.18;;;13.20;99.90;;;;;;5063152;28;20103;-74
2023/09/27 02:19:48;;;;;;;19.85;11.23;;;13.20;99.90;;;;;;5062098;28;20052;-74
2023/09/27 02:22:14;;;;;;;15.48;9.80;;;13.20;99.90;;;;;;5063372;28;20040;-74
2023/09/27 02:24:40;;;;;;;17.20;10.98;;;13.10;99.90;;;;;;5063250;28;20034;-75
2023/09/27 02:27:06;;;;;;;17.95;11.70;;;13.10;99.90;;;;;;5061630;28;20037;-74
2023/09/27 02:29:32;;;;;;;16.08;11.73;;;13.20;99.90;;;;;;5063460;28;20033;-74
2023/09/27 02:31:58;;;;;;;17.77;11.25;;;13.10;99.90;;;;;;5061415;28;20060;-73
2023/09/27 02:34:25;;;;;;;16.90;11.52;;;13.10;99.90;;;;;;5063213;28;20037;-74
2023/09/27 02:36:50;;;;;;;19.98;12.32;;;13.10;99.90;;;;;;5061424;28;21656;-74
2023/09/27 02:39:16;;;;;;;16.20;11.93;;;13.10;99.90;;;;;;5062898;28;20021;-74
2023/09/27 02:41:41;;;;;;;15.88;11.15;;;13.00;99.90;;;;;;5063317;28;20025;-74
2023/09/27 02:44:07;;;;;;;19.38;11.70;;;13.10;99.90;;;;;;5062773;28;20032;-74
2023/09/27 02:46:33;;;;;;;18.52;11.85;;;13.00;99.90;;;;;;5063018;28;20042;-73
2023/09/27 02:48:58;;;;;;;19.65;12.07;;;13.00;99.90;;;;;;5062738;28;20058;-74
2023/09/27 02:51:24;;;;;;;19.60;12.25;;;13.00;99.90;;;;;;5062536;28;20036;-71
2023/09/27 02:53:49;;;;;;;17.00;12.20;;;13.00;99.90;;;;;;5061630;28;20482;-73
2023/09/27 02:56:15;;;;;;;17.25;12.60;;;13.00;99.90;;;;;;5062984;28;20009;-74
2023/09/27 02:58:40;;;;;;;19.77;13.05;;;13.00;99.90;;;;;;5062347;28;20039;-73
2023/09/27 03:01:06;;;;;;;19.75;13.52;;;13.00;99.90;;;;;;5061466;28;20027;-73
2023/09/27 03:03:33;;;;;;;19.80;13.30;;;12.90;99.90;;;;;;5061655;28;20028;-73
2023/09/27 03:05:59;;;;;;;18.15;13.48;;;12.90;99.90;;;;;;5061951;28;20028;-74
2023/09/27 03:08:25;;;;;;;22.27;14.45;;;12.90;99.90;;;;;;5062526;28;20115;-72
2023/09/27 03:10:51;;;;;;;23.52;15.00;;;12.90;99.90;;;;;;5060647;28;20013;-73
2023/09/27 03:13:18;;;;;;;23.83;14.23;;;12.90;99.90;;;;;;5062010;28;20359;-73
2023/09/27 03:15:44;;;;;;;19.70;13.65;;;12.80;99.90;;;;;;5062484;28;20017;-73
2023/09/27 03:18:11;;;;;;;21.17;14.27;;;12.80;99.90;;;;;;5060392;28;20028;-74
2023/09/27 03:20:37;;;;;;;23.75;13.80;;;12.80;99.90;;;;;;5062450;28;20025;-73
2023/09/27 03:23:03;;;;;;;23.30;13.52;;;12.80;99.90;;;;;;5061893;28;20036;-74
2023/09/27 03:25:28;;;;;;;22.10;14.05;;;12.80;99.90;;;;;;5062174;28;20409;-73
2023/09/27 03:27:54;;;;;;;20.60;13.85;;;12.80;99.90;;;;;;5061910;28;20480;-72
2023/09/27 03:30:20;;;;;;;22.02;14.90;;;12.70;99.90;;;;;;5060794;28;20087;-72
2023/09/27 03:32:46;;;;;;;20.88;14.40;;;12.70;99.90;;;;;;5061206;28;20032;-72
2023/09/27 03:35:12;;;;;;;23.77;15.35;;;12.70;99.90;;;;;;5060711;28;20037;-74
2023/09/27 03:37:39;;;;;;;24.88;15.45;;;12.70;99.90;;;;;;5061850;28;20056;-75
2023/09/27 03:40:15;;;;;;;23.50;14.32;;;12.70;99.90;;;;;;5060439;28;20033;-73
2023/09/27 03:42:45;;;;;;;24.30;14.05;;;12.70;99.90;;;;;;5061811;28;20025;-73
2023/09/27 03:45:11;;;;;;;24.02;14.18;;;12.70;99.90;;;;;;5060650;28;20017;-75
2023/09/27 03:47:37;;;;;;;21.38;14.55;;;12.60;99.90;;;;;;5061752;28;20041;-74
2023/09/27 03:50:03;;;;;;;20.00;13.75;;;12.60;99.90;;;;;;5060698;28;20028;-75
2023/09/27 03:52:29;;;;;;;19.25;12.75;;;12.60;99.90;;;;;;5061159;28;20413;-74
2023/09/27 03:54:55;;;;;;;21.58;14.73;;;12.60;99.90;;;;;;5060286;28;20025;-72
2023/09/27 03:57:20;;;;;;;23.80;15.43;;;12.60;99.90;;;;;;5061379;28;20025;-74
2023/09/27 03:59:46;;;;;;;22.02;16.40;;;12.60;99.90;;;;;;5061427;28;20133;-74
2023/09/27 04:02:11;;;;;;;22.27;15.45;;;12.60;99.90;;;;;;5061261;28;20021;-75
2023/09/27 04:04:37;;;;;;;24.52;15.70;;;12.60;99.90;;;;;;5062030;28;20025;-72
2023/09/27 04:07:02;;;;;;;26.60;18.23;;;12.60;99.90;;;;;;5060181;28;20056;-72
2023/09/27 04:09:28;;;;;;;28.20;18.10;;;12.60;99.90;;;;;;5059978;28;20097;-73
2023/09/27 04:11:55;;;;;;;28.92;18.35;;;12.50;99.90;;;;;;5061112;28;20088;-73
2023/09/27 04:14:21;;;;;;;29.92;18.63;;;12.60;99.90;;;;;;5060250;28;20033;-74
2023/09/27 04:16:46;;;;;;;25.90;16.90;;;12.50;99.90;;;;;;5060230;28;20084;-73
2023/09/27 04:19:13;;;;;;;23.88;16.52;;;12.50;99.90;;;;;;5061639;28;20037;-74
2023/09/27 04:21:38;;;;;;;24.27;15.95;;;12.50;99.90;;;;;;5060109;28;20066;-74
2023/09/27 04:24:04;;;;;;;23.60;15.75;;;12.50;99.90;;;;;;5060441;28;20063;-72
2023/09/27 04:26:30;;;;;;;25.80;15.98;;;12.40;99.90;;;;;;5064150;28;20465;-74
2023/09/27 04:28:56;;;;;;;20.85;14.88;;;12.40;99.90;;;;;;5065303;28;20064;-73
2023/09/27 04:31:22;;;;;;;24.95;16.15;;;12.40;99.90;;;;;;5065439;28;20027;-72
2023/09/27 04:33:47;;;;;;;27.92;15.82;;;12.40;99.90;;;;;;5064255;28;20043;-73
2023/09/27 04:36:17;;;;;;;24.52;15.90;;;12.40;99.90;;;;;;5064903;28;20072;-74
2023/09/27 04:38:44;;;;;;;24.10;16.25;;;12.40;99.90;;;;;;5063500;28;20420;-74
2023/09/27 04:41:11;;;;;;;24.48;16.38;;;12.30;99.90;;;;;;5064898;28;20470;-74
2023/09/27 04:43:36;;;;;;;28.35;16.95;;;12.40;99.90;;;;;;5065183;28;20013;-73
2023/09/27 04:46:02;;;;;;;24.50;16.27;;;12.30;99.90;;;;;;5064346;28;20044;-73
2023/09/27 04:48:28;;;;;;;26.10;17.30;;;12.30;99.90;;;;;;5063692;28;20434;-71
2023/09/27 04:50:54;;;;;;;25.35;17.45;;;12.30;99.90;;;;;;5064636;28;20036;-72
2023/09/27 04:53:19;;;;;;;28.35;18.55;;;12.30;99.90;;;;;;5063664;28;20033;-73
2023/09/27 04:55:45;;;;;;;26.92;17.38;;;12.30;99.90;;;;;;5063737;28;20033;-72
2023/09/27 04:58:11;;;;;;;29.80;18.63;;;12.20;99.90;;;;;;5064769;28;20108;-73
2023/09/27 05:00:36;;;;;;;30.00;19.17;;;12.20;99.90;;;;;;5064040;28;20025;-75
2023/09/27 05:03:02;;;;;;;33.00;19.55;;;12.30;99.90;;;;;;5063456;28;20036;-73
2023/09/27 05:05:28;;;;;;;28.67;18.80;;;12.20;99.90;;;;;;5064858;28;20025;-73
2023/09/27 05:07:54;;;;;;;33.03;17.65;;;12.30;99.90;;;;;;5063208;28;20041;-73
2023/09/27 05:10:19;;;;;;;33.65;20.90;;;12.20;99.90;;;;;;5063133;28;20549;-72
2023/09/27 05:12:45;;;;;;;31.10;19.73;;;12.20;99.90;;;;;;5063365;28;20025;-73
2023/09/27 05:15:10;;;;;;;30.85;20.52;;;12.30;99.90;;;;;;5063588;28;20025;-72
2023/09/27 05:17:36;;;;;;;41.53;20.30;;;12.20;99.90;;;;;;5062196;28;20545;-72
2023/09/27 05:20:10;;;;;;;37.28;21.42;;;12.30;99.90;;;;;;5064062;28;20051;-73
2023/09/27 05:22:36;;;;;;;37.35;21.92;;;12.30;99.90;;;;;;5064631;28;20029;-74
2023/09/27 05:25:03;;;;;;;33.05;21.58;;;12.30;99.90;;;;;;5062669;28;20033;-72
2023/09/27 05:27:29;;;;;;;34.75;20.98;;;12.30;99.90;;;;;;5064597;28;20056;-71
2023/09/27 05:29:55;;;;;;;32.90;19.92;;;12.30;99.90;;;;;;5062404;28;20025;-72
2023/09/27 05:32:23;;;;;;;35.25;20.05;;;12.30;99.90;;;;;;5061092;28;20107;-72
2023/09/27 05:34:50;;;;;;;33.53;21.73;;;12.40;99.90;;;;;;5064226;28;20047;-73
2023/09/27 05:37:15;;;;;;;32.75;19.88;;;12.30;99.90;;;;;;5061678;28;20113;-73
2023/09/27 05:39:41;;;;;;;32.80;19.52;;;12.30;99.90;;;;;;5064088;28;20032;-73
2023/09/27 05:42:06;;;;;;;35.88;21.80;;;12.30;99.90;;;;;;5063092;28;20028;-72
2023/09/27 05:44:32;;;;;;;36.88;21.50;;;12.30;99.90;;;;;;5064171;28;20039;-72
2023/09/27 05:46:58;;;;;;;30.85;20.10;;;12.30;99.90;;;;;;5064042;28;20056;-72
2023/09/27 05:49:24;;;;;;;32.35;20.67;;;12.30;99.90;;;;;;5063891;28;20021;-71
2023/09/27 05:51:52;;;;;;;30.25;19.98;;;12.30;99.90;;;;;;5063777;28;20021;-73
2023/09/27 05:54:19;;;;;;;35.45;20.70;;;12.40;99.90;;;;;;5063433;28;20088;-72
2023/09/27 05:56:50;;;;;;;36.60;19.63;;;12.40;99.90;;;;;;5064141;28;20056;-71
2023/09/27 05:59:16;;;;;;;38.17;19.90;;;12.40;99.90;;;;;;5063213;28;20020;-71
2023/09/27 06:01:42;;;;;;;38.17;21.23;;;12.40;99.90;;;;;;5062588;28;20465;-74
2023/09/27 06:04:08;;;;;;;35.47;20.98;;;12.40;99.90;;;;;;5063589;28;20071;-72
2023/09/27 06:06:36;;;;;;;30.10;20.02;;;12.40;99.90;;;;;;5061934;28;20033;-73
2023/09/27 06:09:05;;;;;;;35.63;20.08;;;12.50;99.90;;;;;;5063711;28;20025;-72
2023/09/27 06:11:32;;;;;;;35.53;21.02;;;12.50;99.90;;;;;;5063824;28;20049;-72
2023/09/27 06:13:58;;;;;;;31.35;20.85;;;12.50;99.90;;;;;;5063448;28;21060;-72
2023/09/27 06:16:24;;;;;;;33.15;20.48;;;12.60;99.90;;;;;;5063728;28;20025;-71
2023/09/27 06:18:50;;;;;;;32.33;20.00;;;12.70;99.90;;;;;;5061938;28;20032;-73
2023/09/27 06:21:16;;;;;;;36.10;22.08;;;12.70;99.90;;;;;;5063209;28;20155;-72
2023/09/27 06:23:42;;;;;;;38.83;22.67;;;12.80;99.90;;;;;;5060570;28;20107;-73
2023/09/27 06:26:09;;;;;;;41.83;23.02;;;12.70;99.90;;;;;;5063374;28;20031;-73
2023/09/27 06:28:37;;;;;;;41.83;21.73;;;12.90;99.90;;;;;;5062274;28;20030;-72
2023/09/27 06:31:06;;;;;;;38.22;22.50;;;12.90;99.90;;;;;;5060323;28;20032;-72
2023/09/27 06:33:38;;;;;;;45.72;21.30;;;13.00;99.90;;;;;;5059250;28;20040;-72
2023/09/27 06:36:05;;;;;;;44.47;22.70;;;13.00;99.90;;;;;;5061358;28;20037;-72
2023/09/27 06:38:31;;;;;;;44.92;21.63;;;13.10;99.90;;;;;;5059953;28;20032;-72
2023/09/27 06:40:57;;;;;;;43.70;21.67;;;13.20;99.90;;;;;;5062505;28;20024;-72
2023/09/27 06:43:27;;;;;;;41.95;21.90;;;13.20;99.90;;;;;;5062519;28;20069;-71
2023/09/27 06:45:53;;;;;;;47.00;21.95;;;13.30;99.90;;;;;;5062845;28;20049;-73
2023/09/27 06:48:20;;;;;;;45.90;22.20;;;13.40;99.90;;;;;;5060131;28;20131;-73
2023/09/27 06:50:47;;;;;;;36.47;22.88;;;13.40;99.90;;;;;;5061693;28;20382;-73
2023/09/27 06:53:13;;;;;;;32.40;22.08;;;13.50;99.90;;;;;;5062829;28;20032;-72
2023/09/27 06:55:39;;;;;;;39.22;22.65;;;13.50;99.90;;;;;;5062068;28;20052;-73
2023/09/27 06:58:05;;;;;;;32.63;21.02;;;13.60;99.90;;;;;;5061643;28;20024;-72
2023/09/27 07:00:30;;;;;;;30.58;20.75;;;13.70;99.90;;;;;;5062711;28;20025;-72
2023/09/27 07:02:56;;;;;;;31.30;20.98;;;13.70;99.90;;;;;;5059625;28;20021;-72
2023/09/27 07:05:23;;;;;;;37.00;22.25;;;13.80;99.90;;;;;;5062495;28;20025;-73
2023/09/27 07:07:49;;;;;;;39.47;22.52;;;13.90;99.90;;;;;;5061267;28;20033;-72
2023/09/27 07:10:16;;;;;;;36.38;23.65;;;14.10;99.90;;;;;;5061845;28;20028;-71
2023/09/27 07:12:41;;;;;;;38.33;23.58;;;14.20;99.90;;;;;;5059693;28;20092;-72
2023/09/27 07:15:14;;;;;;;36.40;23.80;;;14.30;99.90;;;;;;5060936;28;20063;-72
2023/09/27 07:17:41;;;;;;;36.58;23.58;;;14.40;99.90;;;;;;5060938;28;20055;-71
2023/09/27 07:20:20;;;;;;;41.97;24.23;;;14.50;99.90;;;;;;5061131;28;20041;-73
2023/09/27 07:22:46;;;;;;;37.70;25.48;;;14.70;99.90;;;;;;5061392;28;20085;-73
2023/09/27 07:25:16;;;;;;;41.72;24.90;;;14.80;99.90;;;;;;5060293;28;20025;-73
2023/09/27 07:27:42;;;;;;;44.13;26.23;;;15.00;99.90;;;;;;5062194;28;20982;-73
2023/09/27 07:30:11;;;;;;;40.45;24.80;;;15.10;99.90;;;;;;5061783;28;20040;-72
2023/09/27 07:32:41;;;;;;;42.95;24.48;;;15.30;99.90;;;;;;5060248;28;20021;-72
2023/09/27 07:35:10;;;;;;;33.95;22.92;;;15.40;99.90;;;;;;5062267;28;20029;-74
2023/09/27 07:37:37;;;;;;;42.63;24.67;;;15.50;99.90;;;;;;5060492;28;20049;-72
2023/09/27 07:40:09;;;;;;;34.83;22.83;;;15.80;99.90;;;;;;5062041;28;20029;-72
2023/09/27 07:42:44;;;;;;;35.28;22.40;;;16.10;99.90;;;;;;5062078;28;20033;-73
2023/09/27 07:45:22;;;;;;;33.05;21.13;;;16.30;99.90;;;;;;5061397;28;20017;-72
2023/09/27 07:47:54;;;;;;;39.83;21.27;;;16.60;99.90;;;;;;5060390;28;20078;-73
2023/09/27 07:50:20;;;;;;;33.78;20.75;;;16.80;99.90;;;;;;5061139;28;20599;-70
2023/09/27 07:52:47;;;;;;;31.75;21.02;;;17.00;99.90;;;;;;5061007;28;20076;-71
2023/09/27 07:55:14;;;;;;;36.05;21.75;;;17.20;99.90;;;;;;5061123;28;20020;-71
2023/09/27 07:57:43;;;;;;;34.60;21.17;;;17.30;99.90;;;;;;5059469;28;20117;-70
2023/09/27 08:00:10;;;;;;;33.03;21.48;;;17.40;99.90;;;;;;5057449;28;20714;-71
2023/09/27 08:02:38;;;;;;;43.38;22.58;;;17.40;99.90;;;;;;5058336;28;20043;-72
2023/09/27 08:05:09;;;;;;;45.28;24.33;;;17.50;99.90;;;;;;5059716;28;20029;-71
2023/09/27 08:07:38;;;;;;;46.13;24.30;;;17.70;99.90;;;;;;5060963;28;20108;-72
2023/09/27 08:10:05;;;;;;;39.85;22.83;;;17.90;99.90;;;;;;5061306;28;20025;-71
2023/09/27 08:12:32;;;;;;;36.45;24.33;;;18.00;99.90;;;;;;5061441;28;20040;-72
2023/09/27 08:15:03;;;;;;;33.92;22.25;;;18.20;99.90;;;;;;5060041;28;20013;-71
2023/09/27 08:17:29;;;;;;;35.95;24.23;;;18.20;99.90;;;;;;5061360;28;20393;-70
2023/09/27 08:19:55;;;;;;;32.88;23.48;;;18.40;99.90;;;;;;5059382;28;20029;-71
2023/09/27 08:22:21;;;;;;;32.95;21.95;;;18.40;99.90;;;;;;5061121;28;20028;-71
2023/09/27 08:24:46;;;;;;;29.20;20.70;;;18.50;99.90;;;;;;5061643;28;20112;-70
2023/09/27 08:27:12;;;;;;;32.72;22.25;;;18.60;99.90;;;;;;5061169;28;20029;-73
2023/09/27 08:29:37;;;;;;;31.52;21.50;;;18.60;99.90;;;;;;5061633;28;20474;-73
2023/09/27 08:32:06;;;;;;;30.73;22.15;;;18.70;99.90;;;;;;5060297;28;20033;-70
2023/09/27 08:34:32;;;;;;;31.13;21.65;;;18.80;99.90;;;;;;5059137;28;20036;-70
2023/09/27 08:36:59;;;;;;;33.03;23.02;;;18.80;99.90;;;;;;5059529;28;20041;-71
2023/09/27 08:39:26;;;;;;;34.53;23.48;;;18.80;99.90;;;;;;5061474;28;20043;-71
2023/09/27 08:41:54;;;;;;;38.47;22.25;;;18.80;99.90;;;;;;5061243;28;20017;-71
2023/09/27 08:44:24;;;;;;;36.15;23.55;;;18.90;99.90;;;;;;5059906;28;20017;-70
2023/09/27 08:46:50;;;;;;;31.52;21.73;;;19.00;99.90;;;;;;5061168;28;20093;-70
2023/09/27 08:49:17;;;;;;;31.50;22.48;;;19.10;99.90;;;;;;5060878;28;20029;-70
2023/09/27 08:51:45;;;;;;;28.20;21.33;;;19.20;99.90;;;;;;5058541;28;20048;-71
2023/09/27 08:54:16;;;;;;;31.63;22.60;;;19.30;99.90;;;;;;5059556;28;20040;-71
2023/09/27 08:56:46;;;;;;;30.25;22.20;;;19.30;99.90;;;;;;5060793;28;20021;-72
2023/09/27 08:59:12;;;;;;;29.92;22.75;;;19.30;99.90;;;;;;5059002;28;20021;-72
2023/09/27 09:01:41;;;;;;;32.20;22.27;;;19.40;99.90;;;;;;5058181;28;20032;-71
2023/09/27 09:04:08;;;;;;;35.67;23.33;;;19.40;99.90;;;;;;5060580;28;20029;-70
2023/09/27 09:06:34;;;;;;;31.00;22.38;;;19.30;99.90;;;;;;5060989;28;20136;-72
2023/09/27 09:09:04;;;;;;;36.17;22.77;;;19.30;99.90;;;;;;5061169;28;20032;-71
2023/09/27 09:11:31;;;;;;;33.65;23.02;;;19.30;99.90;;;;;;5063020;28;20048;-70
2023/09/27 09:14:06;;;;;;;32.78;23.13;;;19.40;99.90;;;;;;5059988;28;20024;-70
2023/09/27 09:16:39;;;;;;;34.33;22.45;;;19.50;99.90;;;;;;5062426;28;20029;-70
2023/09/27 09:19:25;;;;;;;33.83;23.17;;;19.60;99.90;;;;;;5063383;28;20071;-71
2023/09/27 09:21:56;;;;;;;33.17;22.95;;;19.80;99.90;;;;;;5064158;28;20021;-68
2023/09/27 09:24:22;;;;;;;32.90;21.55;;;19.90;99.90;;;;;;5063371;28;20103;-69
2023/09/27 09:27:02;;;;;;;34.17;22.50;;;20.10;99.90;;;;;;5064077;28;20094;-72
2023/09/27 09:29:46;;;;;;;30.77;21.85;;;20.20;99.90;;;;;;5064051;28;20320;-71
2023/09/27 09:32:15;;;;;;;29.90;21.70;;;20.20;99.90;;;;;;5064119;28;20021;-72
2023/09/27 09:34:44;;;;;;;31.38;22.00;;;20.20;99.90;;;;;;5062897;28;20025;-72
2023/09/27 09:37:21;;;;;;;27.48;20.52;;;20.20;99.90;;;;;;5060245;28;20061;-72
2023/09/27 09:39:51;;;;;;;29.65;21.67;;;20.10;99.90;;;;;;5076633;28;20044;-71
2023/09/27 09:42:32;;;;;;;29.88;21.70;;;20.10;99.90;;;;;;5059847;28;20025;-71
2023/09/27 09:45:07;;;;;;;33.53;21.77;;;20.10;99.90;;;;;;5060150;28;20057;-69
2023/09/27 09:47:39;;;;;;;35.75;21.13;;;20.00;99.90;;;;;;5057677;28;20037;-71
2023/09/27 09:50:06;;;;;;;41.83;22.40;;;19.90;99.90;;;;;;5059068;28;20355;-72
2023/09/27 09:52:35;;;;;;;28.25;20.52;;;19.90;99.90;;;;;;5059623;28;20098;-71
2023/09/27 09:55:03;;;;;;;36.97;20.80;;;19.90;99.90;;;;;;5060753;28;20044;-71
2023/09/27 09:57:36;;;;;;;33.00;20.73;;;19.90;99.90;;;;;;5062108;28;20052;-71
2023/09/27 10:00:11;;;;;;;39.35;20.58;;;19.90;99.90;;;;;;5061841;28;20057;-70
2023/09/27 10:02:51;;;;;;;26.48;19.33;;;20.00;99.90;;;;;;5064012;28;20106;-72
2023/09/27 10:05:23;;;;;;;26.55;18.17;;;20.10;99.90;;;;;;5062273;28;20025;-72
2023/09/27 10:07:50;;;;;;;26.38;18.92;;;20.20;99.90;;;;;;5061895;28;20033;-72
2023/09/27 10:10:24;;;;;;;29.05;19.70;;;20.40;99.90;;;;;;5063701;28;20139;-70
2023/09/27 10:12:52;;;;;;;30.73;19.92;;;20.60;99.90;;;;;;5062444;28;20032;-71
2023/09/27 10:15:20;;;;;;;26.55;19.58;;;20.60;99.90;;;;;;5062157;28;20025;-72
2023/09/27 10:17:46;;;;;;;29.63;19.35;;;20.80;99.90;;;;;;5063545;28;20021;-71
2023/09/27 10:20:22;;;;;;;29.50;19.23;;;20.90;99.90;;;;;;5061964;28;20021;-71
2023/09/27 10:22:49;;;;;;;26.58;18.85;;;21.00;99.90;;;;;;5062540;28;20051;-71
2023/09/27 10:25:23;;;;;;;32.70;18.52;;;21.10;99.90;;;;;;5063485;28;20025;-71
2023/09/27 10:28:01;;;;;;;25.50;17.58;;;21.30;99.90;;;;;;5062959;28;20055;-72
2023/09/27 10:30:48;;;;;;;26.63;18.65;;;21.30;99.90;;;;;;5063213;28;20116;-71
2023/09/27 10:33:16;;;;;;;27.85;18.52;;;21.30;99.90;;;;;;5067996;28;20452;-71
2023/09/27 10:35:44;;;;;;;28.52;17.85;;;21.30;99.90;;;;;;5062650;28;20060;-72
2023/09/27 10:38:10;;;;;;;27.00;19.48;;;21.40;99.90;;;;;;5062101;28;20062;-71
2023/09/27 10:40:46;;;;;;;20.65;15.00;;;21.50;99.90;;;;;;5062650;28;20020;-70
2023/09/27 10:43:41;;;;;;;23.52;16.80;;;21.60;99.90;;;;;;5057275;28;20040;-71
2023/09/27 10:46:08;;;;;;;28.58;17.17;;;21.70;99.90;;;;;;5062166;28;20063;-72
2023/09/27 10:48:36;;;;;;;23.17;17.77;;;21.80;99.90;;;;;;5060845;28;20024;-72
2023/09/27 10:51:02;;;;;;;30.20;19.50;;;21.80;99.90;;;;;;5062081;28;20024;-71
2023/09/27 10:53:28;;;;;;;26.33;17.58;;;21.80;99.90;;;;;;5061194;28;20017;-71
2023/09/27 10:55:53;;;;;;;30.52;17.92;;;21.80;99.90;;;;;;5059357;28;20412;-71
2023/09/27 10:58:19;;;;;;;24.02;16.52;;;21.80;99.90;;;;;;5061374;28;20033;-70
2023/09/27 11:00:51;;;;;;;20.80;13.75;;;21.80;99.90;;;;;;5061499;28;20033;-71
2023/09/27 11:03:17;;;;;;;17.58;13.52;;;21.90;99.90;;;;;;5062465;28;20087;-70
2023/09/27 11:05:43;;;;;;;23.08;15.13;;;22.00;99.90;;;;;;5062812;28;20036;-68
2023/09/27 11:08:09;;;;;;;21.13;15.18;;;22.10;99.90;;;;;;5062493;28;20041;-71
2023/09/27 11:10:35;;;;;;;20.42;13.25;;;22.20;99.90;;;;;;5057707;28;20063;-71
2023/09/27 11:13:09;;;;;;;20.88;13.30;;;22.40;99.90;;;;;;5062726;28;20036;-69
2023/09/27 11:15:36;;;;;;;18.17;12.80;;;22.50;99.90;;;;;;5062238;28;20766;-71
2023/09/27 11:18:04;;;;;;;17.50;12.88;;;22.70;99.90;;;;;;5061622;28;20025;-70
2023/09/27 11:20:30;;;;;;;15.70;9.27;;;22.80;99.90;;;;;;5062281;28;20029;-71
2023/09/27 11:22:59;;;;;;;16.63;11.75;;;23.00;99.90;;;;;;5062196;28;20488;-72
2023/09/27 11:25:36;;;;;;;16.70;11.90;;;23.10;99.90;;;;;;5062011;28;20029;-71
2023/09/27 11:28:02;;;;;;;15.52;8.32;;;23.20;99.90;;;;;;5062504;28;20048;-71
2023/09/27 11:30:32;;;;;;;13.10;9.30;;;23.30;99.90;;;;;;5060166;28;20033;-72
2023/09/27 11:33:01;;;;;;;13.68;9.82;;;23.40;99.90;;;;;;5062165;28;20029;-70
2023/09/27 11:35:27;;;;;;;20.88;11.70;;;23.50;99.90;;;;;;5060363;28;20033;-71
2023/09/27 11:38:10;;;;;;;16.65;11.32;;;23.50;99.90;;;;;;5061366;28;20047;-70
2023/09/27 11:40:37;;;;;;;14.63;9.75;;;23.50;99.90;;;;;;5062294;28;20037;-71
2023/09/27 11:43:04;;;;;;;20.73;9.73;;;23.40;99.90;;;;;;5060770;28;20104;-71
2023/09/27 11:45:49;;;;;;;18.05;11.48;;;23.40;99.90;;;;;;5061533;28;20028;-70
2023/09/27 11:48:16;;;;;;;13.52;10.15;;;23.50;99.90;;;;;;5061340;28;20063;-72
2023/09/27 11:50:42;;;;;;;13.85;7.80;;;23.60;99.90;;;;;;5061751;28;20032;-72
2023/09/27 11:53:08;;;;;;;13.70;10.13;;;23.80;99.90;;;;;;5061786;28;20025;-70
2023/09/27 11:55:35;;;;;;;14.45;9.70;;;24.00;99.90;;;;;;5062239;28;20137;-70
2023/09/27 11:58:01;;;;;;;14.45;8.50;;;24.20;99.90;;;;;;5061860;28;20092;-70
2023/09/27 12:00:28;;;;;;;10.75;8.10;;;24.30;99.90;;;;;;5061458;28;21496;-71
2023/09/27 12:02:54;;;;;;;15.02;10.10;;;24.40;99.90;;;;;;5061311;28;20029;-70
2023/09/27 12:05:19;;;;;;;18.80;9.73;;;24.50;99.90;;;;;;5061530;28;20389;-72
2023/09/27 12:07:45;;;;;;;18.23;11.52;;;24.40;99.90;;;;;;5061431;28;20037;-69
2023/09/27 12:10:11;;;;;;;16.98;10.13;;;24.20;99.90;;;;;;5060374;28;20020;-71
2023/09/27 12:12:40;;;;;;;13.45;9.43;;;24.00;99.90;;;;;;5061378;28;20025;-72
2023/09/27 12:15:07;;;;;;;12.90;8.80;;;23.80;99.90;;;;;;5061578;28;20371;-71
2023/09/27 12:17:32;;;;;;;11.07;8.60;;;23.60;99.90;;;;;;5060519;28;20032;-71
2023/09/27 12:19:58;;;;;;;14.63;8.45;;;23.50;99.90;;;;;;5060014;28;20042;-70
2023/09/27 12:22:24;;;;;;;14.13;9.40;;;23.60;99.90;;;;;;5061547;28;20382;-71
2023/09/27 12:24:51;;;;;;;12.32;8.05;;;23.60;99.90;;;;;;5061639;28;20017;-71
2023/09/27 12:27:16;;;;;;;12.57;7.90;;;23.60;99.90;;;;;;5060845;28;20025;-71
2023/09/27 12:29:42;;;;;;;12.18;8.70;;;23.60;99.90;;;;;;5061624;28;20033;-71